Weather History for KAWO - March, 2014

Change the Weather History Date:

Saturday, March 29, 2014

  Actual Average Record
Temperature  
Mean Temperature 48 °F -  
Max Temperature 51 °F 0 °F 80 °F (2004)
Min Temperature 44 °F - 26 °F (1998)
Degree Days  
Heating Degree Days 18    
Moisture  
Dew Point 41 °F    
Average Humidity 80    
Maximum Humidity 87    
Minimum Humidity 66    
Precipitation  
Precipitation 0.21 in - - ()
Sea Level Pressure  
Sea Level Pressure 29.76 in    
Wind  
Wind Speed 12 mph (SSE)    
Max Wind Speed 22 mph    
Max Gust Speed 31 mph    
Visibility 10 miles    
Events      
Averages and records for this station are not official NWS values.
T = Trace of Precipitation, MM = Missing Value Source: NWS Daily Summary

Daily Weather History Graph

Daily Weather History Graph

Search for Another Location

Airport or City:

Trip Planner

Search our weather history database for the weather conditions in past years. The results will help you decide how hot, cold, wet, or windy it might be!

Date:

Astronomy

Mar. 29, 2014 Rise Set
Actual Time 6:52 AM PDT 7:34 PM PDT
Civil Twilight 6:21 AM PDT 8:06 PM PDT
Nautical Twilight 5:44 AM PDT 8:43 PM PDT
Astronomical Twilight 5:04 AM PDT 9:23 PM PDT
Moon 6:09 AM PDT (3/29) 6:43 PM PDT (3/29)
Length of Visible Light 13h 44m
Length of Day
12h 42m
Waning Crescent, 1% of the Moon is Illuminated
Mar 29
Waning Crescent
Mar 30
New
Apr 7
First Quarter
Apr 15
Full
Apr 22
Last Quarter

Hourly Weather History & Observations

Time (PDT) Temp. Windchill Dew Point Humidity Pressure Visibility Wind Dir Wind Speed Gust Speed Precip Events Conditions
12:15 AM 48.2 °F - 42.8 °F 82% 29.73 in 10.0 mi SE 12.7 mph - N/A   Overcast
12:35 AM 48.2 °F - 42.8 °F 82% 29.74 in 10.0 mi SE 10.4 mph - N/A   Mostly Cloudy
12:55 AM 48.2 °F - 42.8 °F 82% 29.73 in 10.0 mi SSE 5.8 mph - N/A   Overcast
1:15 AM 48.2 °F - 42.8 °F 82% 29.73 in 10.0 mi SSE 9.2 mph - N/A   Overcast
1:35 AM 48.2 °F - 42.8 °F 82% 29.73 in 10.0 mi South 6.9 mph - N/A   Overcast
1:55 AM 48.2 °F - 41.0 °F 76% 29.73 in 10.0 mi SSE 11.5 mph - N/A   Overcast
2:15 AM 48.2 °F - 41.0 °F 76% 29.73 in 10.0 mi SSE 12.7 mph - N/A   Mostly Cloudy
2:35 AM 48.2 °F - 41.0 °F 76% 29.72 in 10.0 mi SSE 8.1 mph - N/A   Mostly Cloudy
2:55 AM 48.2 °F - 42.8 °F 82% 29.72 in 9.0 mi Calm Calm - 0.04 in   Overcast
3:15 AM 48.2 °F - 42.8 °F 82% 29.72 in 10.0 mi SSW 4.6 mph - N/A   Overcast
3:35 AM 46.4 °F 39.0 °F 41.0 °F 81% 29.73 in 8.0 mi SSW 19.6 mph 26.5 mph 0.06 in   Overcast
3:55 AM 46.4 °F 39.2 °F 41.0 °F 81% 29.73 in 9.0 mi SSW 18.4 mph 25.3 mph 0.10 in   Mostly Cloudy
4:15 AM 44.6 °F 39.7 °F 39.2 °F 81% 29.72 in 10.0 mi South 9.2 mph - 0.02 in   Overcast
4:35 AM 44.6 °F 38.8 °F 39.2 °F 81% 29.72 in 10.0 mi SSE 11.5 mph - 0.02 in   Mostly Cloudy
4:55 AM 44.6 °F 41.4 °F 39.2 °F 81% 29.72 in 10.0 mi ESE 5.8 mph - 0.02 in   Overcast
5:15 AM 44.6 °F 39.7 °F 41.0 °F 87% 29.73 in 10.0 mi SE 9.2 mph - N/A   Overcast
5:35 AM 46.4 °F 39.8 °F 41.0 °F 81% 29.72 in 10.0 mi SSE 16.1 mph - N/A   Overcast
5:55 AM 46.4 °F 41.5 °F 41.0 °F 81% 29.72 in 10.0 mi SE 10.4 mph - N/A   Mostly Cloudy
6:15 AM 46.4 °F 41.9 °F 41.0 °F 81% 29.72 in 10.0 mi SE 9.2 mph - N/A   Overcast
6:35 AM 46.4 °F 41.9 °F 41.0 °F 81% 29.73 in 10.0 mi SE 9.2 mph - N/A   Overcast
6:55 AM 46.4 °F 41.1 °F 41.0 °F 81% 29.73 in 10.0 mi SE 11.5 mph - N/A   Overcast
7:15 AM 46.4 °F 41.5 °F 41.0 °F 81% 29.72 in 10.0 mi ESE 10.4 mph - N/A   Mostly Cloudy
7:35 AM 46.4 °F 40.7 °F 41.0 °F 81% 29.72 in 9.0 mi ESE 12.7 mph - N/A   Overcast
7:55 AM 46.4 °F 41.5 °F 41.0 °F 81% 29.72 in 10.0 mi SE 10.4 mph - 0.01 in   Overcast
8:15 AM 46.4 °F 39.2 °F 41.0 °F 81% 29.73 in 10.0 mi South 18.4 mph - N/A   Overcast
8:35 AM 46.4 °F 40.7 °F 42.8 °F 87% 29.74 in 10.0 mi SSE 12.7 mph - 0.02 in   Overcast
8:55 AM 46.4 °F 41.9 °F 42.8 °F 87% 29.75 in 8.0 mi SSE 9.2 mph - 0.03 in   Mostly Cloudy
9:15 AM 46.4 °F 40.4 °F 41.0 °F 81% 29.75 in 10.0 mi SSE 13.8 mph - 0.01 in   Mostly Cloudy
9:35 AM 46.4 °F - 42.8 °F 87% 29.75 in 10.0 mi North - - 0.01 in   Mostly Cloudy
9:55 AM 46.4 °F 41.1 °F 42.8 °F 87% 29.75 in 10.0 mi SE 11.5 mph - 0.01 in   Overcast
10:15 AM 46.4 °F 40.1 °F 42.8 °F 87% 29.75 in 10.0 mi SE 15.0 mph - N/A   Overcast
10:35 AM 46.4 °F 38.5 °F 41.0 °F 81% 29.75 in 10.0 mi SSE 21.9 mph 29.9 mph N/A   Overcast
10:55 AM 46.4 °F 40.4 °F 42.8 °F 87% 29.76 in 10.0 mi SSE 13.8 mph - N/A   Overcast
11:15 AM 46.4 °F 39.8 °F 42.8 °F 87% 29.76 in 10.0 mi SE 16.1 mph 21.9 mph N/A   Overcast
11:35 AM 48.2 °F - 41.0 °F 76% 29.76 in 10.0 mi SE 17.3 mph 25.3 mph N/A   Overcast
11:55 AM 48.2 °F - 41.0 °F 76% 29.76 in 10.0 mi SE 16.1 mph 27.6 mph N/A   Overcast
12:15 PM 48.2 °F - 42.8 °F 82% 29.76 in 10.0 mi SE 18.4 mph 23.0 mph N/A   Overcast
12:35 PM 48.2 °F - 42.8 °F 82% 29.77 in 10.0 mi SE 18.4 mph 26.5 mph N/A   Overcast
12:55 PM 46.4 °F 38.5 °F 39.2 °F 76% 29.77 in 10.0 mi SSE 21.9 mph 31.1 mph N/A   Overcast
1:15 PM 46.4 °F 39.8 °F 41.0 °F 81% 29.78 in 10.0 mi SSE 16.1 mph 21.9 mph N/A   Overcast
1:35 PM 46.4 °F 40.7 °F 41.0 °F 81% 29.78 in 10.0 mi SSE 12.7 mph 19.6 mph N/A   Overcast
1:55 PM 46.4 °F 40.4 °F 42.8 °F 87% 29.77 in 10.0 mi SE 13.8 mph 23.0 mph N/A   Overcast
2:15 PM 46.4 °F 39.8 °F 41.0 °F 81% 29.78 in 10.0 mi SSE 16.1 mph - N/A   Overcast
2:35 PM 46.4 °F 41.1 °F 42.8 °F 87% 29.78 in 10.0 mi SSE 11.5 mph 21.9 mph N/A   Overcast
2:55 PM 48.2 °F - 42.8 °F 82% 29.78 in 10.0 mi SE 13.8 mph 19.6 mph N/A   Overcast
3:15 PM 48.2 °F - 42.8 °F 82% 29.78 in 10.0 mi SSE 15.0 mph 18.4 mph N/A   Overcast
3:35 PM 48.2 °F - 42.8 °F 82% 29.78 in 10.0 mi SSE 13.8 mph - N/A   Overcast
3:55 PM 48.2 °F - 42.8 °F 82% 29.78 in 10.0 mi SSE 13.8 mph - N/A   Overcast
4:15 PM 50.0 °F - 42.8 °F 76% 29.78 in 10.0 mi SE 15.0 mph - N/A   Overcast
4:35 PM 48.2 °F - 42.8 °F 82% 29.77 in 10.0 mi SE 15.0 mph - N/A   Overcast
4:55 PM 50.0 °F - 42.8 °F 76% 29.77 in 10.0 mi SE 17.3 mph 21.9 mph N/A   Overcast
5:15 PM 51.8 °F - 44.6 °F 76% 29.77 in 10.0 mi SSE 15.0 mph 20.7 mph N/A   Overcast
5:35 PM 51.8 °F - 42.8 °F 71% 29.76 in 10.0 mi SSE 13.8 mph - N/A   Mostly Cloudy
5:55 PM 51.8 °F - 42.8 °F 71% 29.76 in 10.0 mi SSE 17.3 mph 23.0 mph N/A   Mostly Cloudy
6:15 PM 50.0 °F - 39.2 °F 66% 29.76 in 10.0 mi SSE 17.3 mph - N/A   Scattered Clouds
6:35 PM 48.2 °F - 39.2 °F 71% 29.77 in 10.0 mi SE 15.0 mph - N/A   Partly Cloudy
6:55 PM 48.2 °F - 39.2 °F 71% 29.76 in 10.0 mi SE 15.0 mph - N/A   Partly Cloudy
7:15 PM 48.2 °F - 39.2 °F 71% 29.77 in 10.0 mi SSE 15.0 mph 19.6 mph N/A   Mostly Cloudy
7:35 PM 48.2 °F - 39.2 °F 71% 29.77 in 10.0 mi SSE 12.7 mph 24.2 mph N/A   Overcast
7:55 PM 46.4 °F 40.7 °F 41.0 °F 81% 29.77 in 10.0 mi SE 12.7 mph - N/A   Mostly Cloudy
8:15 PM 46.4 °F 40.7 °F 41.0 °F 81% 29.78 in 10.0 mi SSE 12.7 mph - N/A   Overcast
8:35 PM 46.4 °F 40.1 °F 41.0 °F 81% 29.78 in 10.0 mi SE 15.0 mph - N/A   Mostly Cloudy
8:55 PM 46.4 °F 39.5 °F 41.0 °F 81% 29.78 in 10.0 mi SE 17.3 mph 20.7 mph N/A   Mostly Cloudy
9:15 PM 46.4 °F 38.7 °F 41.0 °F 81% 29.78 in 10.0 mi SE 20.7 mph 27.6 mph N/A   Mostly Cloudy
9:35 PM 46.4 °F 39.8 °F 41.0 °F 81% 29.79 in 10.0 mi SE 16.1 mph - N/A   Overcast
9:55 PM 44.6 °F 37.4 °F 39.2 °F 81% 29.79 in 10.0 mi SE 16.1 mph 23.0 mph N/A   Mostly Cloudy
10:15 PM 44.6 °F 37.2 °F 39.2 °F 81% 29.79 in 10.0 mi SE 17.3 mph 23.0 mph N/A   Overcast
10:35 PM 44.6 °F 37.4 °F 39.2 °F 81% 29.80 in 10.0 mi SE 16.1 mph - N/A   Overcast
10:55 PM 44.6 °F 38.1 °F 39.2 °F 81% 29.80 in 10.0 mi SE 13.8 mph 19.6 mph N/A   Overcast
11:15 PM 44.6 °F 37.8 °F 39.2 °F 81% 29.81 in 10.0 mi SE 15.0 mph - N/A   Overcast
11:35 PM 44.6 °F 37.8 °F 41.0 °F 87% 29.81 in 10.0 mi SE 15.0 mph - N/A   Overcast
11:55 PM 44.6 °F 37.8 °F 39.2 °F 81% 29.82 in 10.0 mi SSE 15.0 mph 18.4 mph N/A   Overcast